createdAt,value
2018-06-20T00:01:46.302Z,78.41
2018-06-20T00:04:14.739Z,78.86
2018-06-20T00:06:43.258Z,78.59
2018-06-20T00:09:12.156Z,78.79
2018-06-20T00:11:40.841Z,78.94
2018-06-20T00:14:09.338Z,78.65
2018-06-20T00:16:37.912Z,78.45
2018-06-20T00:19:06.376Z,78.15
2018-06-20T00:21:34.790Z,78.64
2018-06-20T00:24:03.301Z,78.10
2018-06-20T00:26:31.837Z,78.20
2018-06-20T00:29:00.315Z,77.84
2018-06-20T00:31:28.816Z,77.86
2018-06-20T00:33:57.288Z,77.43
2018-06-20T00:36:25.870Z,77.09
2018-06-20T00:38:58.033Z,76.55
2018-06-20T00:41:26.520Z,76.67
2018-06-20T00:43:54.976Z,76.20
2018-06-20T00:46:23.477Z,75.95
2018-06-20T00:48:51.979Z,75.95
2018-06-20T00:51:20.559Z,75.90
2018-06-20T00:53:49.063Z,75.33
2018-06-20T00:56:24.165Z,75.28
2018-06-20T00:58:52.749Z,75.82
2018-06-20T01:01:22.062Z,75.73
2018-06-20T01:03:51.073Z,75.81
2018-06-20T01:06:19.523Z,75.76
2018-06-20T01:08:53.596Z,75.19
2018-06-20T01:11:22.147Z,75.65
2018-06-20T01:13:50.947Z,75.84
2018-06-20T01:16:19.473Z,75.51
2018-06-20T01:18:48.306Z,75.84
2018-06-20T01:21:16.867Z,75.95
2018-06-20T01:23:49.133Z,75.66
2018-06-20T01:26:17.614Z,75.55
2018-06-20T01:28:46.186Z,75.87
2018-06-20T01:31:14.606Z,75.96
2018-06-20T01:33:43.150Z,75.85
2018-06-20T01:36:11.956Z,76.04
2018-06-20T01:38:40.433Z,76.35
2018-06-20T01:41:09.035Z,76.51
2018-06-20T01:43:37.438Z,75.97
2018-06-20T01:46:24.118Z,76.43
2018-06-20T01:48:52.587Z,76.14
2018-06-20T01:51:21.081Z,76.26
2018-06-20T01:53:56.917Z,75.93
2018-06-20T01:56:25.420Z,76.75
2018-06-20T01:58:53.947Z,76.41
2018-06-20T02:01:22.471Z,76.28
2018-06-20T02:03:50.899Z,76.62
2018-06-20T02:06:19.321Z,76.62
2018-06-20T02:08:47.854Z,76.70
2018-06-20T02:11:16.398Z,76.50
2018-06-20T02:13:44.908Z,77.01
2018-06-20T02:16:13.370Z,77.29
2018-06-20T02:18:41.844Z,77.36
2018-06-20T02:21:10.337Z,77.34
2018-06-20T02:23:38.794Z,77.16
2018-06-20T02:26:07.187Z,77.37
2018-06-20T02:28:35.621Z,77.78
2018-06-20T02:31:04.145Z,77.44
2018-06-20T02:33:33.472Z,77.62
2018-06-20T02:36:06.088Z,78.14
2018-06-20T02:38:34.661Z,78.03
2018-06-20T02:41:03.224Z,78.01
2018-06-20T02:43:31.736Z,78.25
2018-06-20T02:46:00.684Z,78.36
2018-06-20T02:48:29.525Z,78.51
2018-06-20T02:50:58.055Z,78.45
2018-06-20T02:54:02.339Z,78.70
2018-06-20T02:56:30.858Z,78.95
2018-06-20T02:58:59.435Z,79.22
2018-06-20T03:01:28.604Z,79.12
2018-06-20T03:03:57.100Z,79.51
2018-06-20T03:06:25.699Z,79.58
2018-06-20T03:08:59.473Z,79.60
2018-06-20T03:11:27.989Z,79.35
2018-06-20T03:14:32.590Z,79.35
2018-06-20T03:17:01.112Z,79.61
2018-06-20T03:19:30.513Z,79.30
2018-06-20T03:21:59.405Z,79.62
2018-06-20T03:24:27.977Z,79.63
2018-06-20T03:26:56.501Z,79.56
2018-06-20T03:29:25.053Z,79.90
2018-06-20T03:32:11.033Z,79.41
2018-06-20T03:34:39.577Z,79.93
2018-06-20T03:37:08.099Z,79.87
2018-06-20T03:39:36.589Z,80.40
2018-06-20T03:42:05.013Z,80.62
2018-06-20T03:44:33.957Z,80.95
2018-06-20T03:47:02.438Z,81.21
2018-06-20T03:49:30.950Z,81.23
2018-06-20T03:51:59.401Z,81.14
2018-06-20T03:54:27.875Z,81.34
2018-06-20T03:56:56.362Z,81.30
2018-06-20T03:59:24.896Z,81.78
2018-06-20T04:01:53.336Z,81.47
2018-06-20T04:04:21.935Z,81.51
2018-06-20T04:06:50.378Z,82.10
2018-06-20T04:09:18.943Z,81.65
2018-06-20T04:11:47.459Z,81.84
2018-06-20T04:14:15.961Z,81.70
2018-06-20T04:16:44.435Z,82.05
2018-06-20T04:19:12.941Z,81.96
2018-06-20T04:21:41.428Z,81.52
2018-06-20T04:24:09.891Z,79.87
2018-06-20T04:26:38.342Z,79.50
2018-06-20T04:29:06.835Z,79.75
2018-06-20T04:31:35.320Z,78.73
2018-06-20T04:34:03.852Z,78.04
2018-06-20T04:36:32.389Z,78.01
2018-06-20T04:39:00.878Z,78.39
2018-06-20T04:41:29.322Z,75.97
2018-06-20T04:43:57.879Z,76.77
2018-06-20T04:46:26.419Z,78.20
2018-06-20T04:48:55.001Z,78.84
2018-06-20T04:51:23.473Z,78.97
2018-06-20T04:53:51.955Z,79.60
2018-06-20T04:56:20.436Z,79.54
2018-06-20T04:58:48.895Z,79.91
2018-06-20T05:01:17.334Z,80.20
2018-06-20T05:03:45.882Z,80.13
2018-06-20T05:06:14.362Z,79.90
2018-06-20T05:08:42.847Z,80.06
2018-06-20T05:11:17.516Z,79.87
2018-06-20T05:13:46.073Z,79.28
2018-06-20T05:16:14.544Z,78.74
2018-06-20T05:18:43.101Z,78.26
2018-06-20T05:21:11.549Z,77.89
2018-06-20T05:23:40.096Z,77.38
2018-06-20T05:26:09.729Z,76.80
2018-06-20T05:28:38.266Z,76.35
2018-06-20T05:31:06.849Z,76.30
2018-06-20T05:33:35.336Z,76.26
2018-06-20T05:36:03.838Z,76.30
2018-06-20T05:38:32.625Z,76.13
2018-06-20T05:41:06.900Z,75.89
2018-06-20T05:43:35.343Z,76.03
2018-06-20T05:46:03.953Z,75.26
2018-06-20T05:48:32.535Z,75.48
2018-06-20T05:51:01.069Z,74.85
2018-06-20T05:53:29.564Z,74.64
2018-06-20T05:55:58.169Z,74.30
2018-06-20T05:58:26.602Z,74.08
2018-06-20T06:00:55.478Z,74.09
2018-06-20T06:03:23.981Z,73.60
2018-06-20T06:06:13.477Z,73.49
2018-06-20T06:08:42.472Z,73.48
2018-06-20T06:11:11.245Z,72.72
2018-06-20T06:13:40.232Z,72.92
2018-06-20T06:16:08.720Z,73.38
2018-06-20T06:18:37.504Z,72.67
2018-06-20T06:21:06.610Z,73.13
2018-06-20T06:23:35.237Z,73.01
2018-06-20T06:26:03.992Z,72.74
2018-06-20T06:28:32.433Z,73.28
2018-06-20T06:31:00.945Z,72.48
2018-06-20T06:33:29.364Z,72.43
2018-06-20T06:35:57.811Z,71.49
2018-06-20T06:38:26.258Z,71.31
2018-06-20T06:40:54.808Z,71.91
2018-06-20T06:43:23.343Z,71.38
2018-06-20T06:45:51.961Z,70.92
2018-06-20T06:48:20.373Z,70.29
2018-06-20T06:50:48.895Z,69.11
2018-06-20T06:53:17.382Z,69.49
2018-06-20T06:55:46.109Z,68.79
2018-06-20T06:58:14.878Z,68.36
2018-06-20T07:00:43.312Z,67.93
2018-06-20T07:03:11.732Z,68.10
2018-06-20T07:05:40.205Z,67.58
2018-06-20T07:08:08.685Z,68.36
2018-06-20T07:10:37.209Z,67.84
2018-06-20T07:13:05.890Z,67.95
2018-06-20T07:15:34.441Z,68.80
2018-06-20T07:18:02.922Z,68.66
2018-06-20T07:20:31.416Z,68.55
2018-06-20T07:22:59.928Z,67.29
2018-06-20T07:25:28.472Z,67.16
2018-06-20T07:27:56.948Z,67.40
2018-06-20T07:30:25.427Z,67.24
2018-06-20T07:33:15.147Z,66.57
2018-06-20T07:35:43.652Z,66.39
2018-06-20T07:38:12.070Z,65.93
2018-06-20T07:40:41.071Z,65.92
2018-06-20T07:43:09.536Z,65.35
2018-06-20T07:45:38.045Z,65.56
2018-06-20T07:48:06.551Z,65.53
2018-06-20T07:50:35.073Z,65.21
2018-06-20T07:53:03.563Z,64.96
2018-06-20T07:55:32.054Z,64.91
2018-06-20T07:58:30.245Z,64.48
2018-06-20T08:01:04.035Z,65.09
2018-06-20T08:03:37.936Z,64.49
2018-06-20T08:06:11.731Z,64.78
2018-06-20T08:08:45.609Z,64.52
2018-06-20T08:11:19.549Z,63.19
2018-06-20T08:13:53.388Z,62.94
2018-06-20T08:16:27.250Z,63.40
2018-06-20T08:19:01.186Z,62.80
2018-06-20T08:21:29.643Z,62.85
2018-06-20T08:23:58.137Z,62.23
2018-06-20T08:26:26.732Z,62.32
2018-06-20T08:28:55.224Z,62.17
2018-06-20T08:31:23.798Z,62.13
2018-06-20T08:33:52.499Z,61.62
2018-06-20T08:36:20.960Z,60.66
2018-06-20T08:38:49.714Z,60.13
2018-06-20T08:41:18.253Z,60.33
2018-06-20T08:43:46.821Z,59.95
2018-06-20T08:46:15.301Z,60.60
2018-06-20T08:48:43.808Z,60.78
2018-06-20T08:51:16.924Z,60.64
2018-06-20T08:53:45.467Z,60.56
2018-06-20T08:56:13.918Z,61.01
2018-06-20T08:58:42.430Z,60.75
2018-06-20T09:01:10.904Z,61.16
2018-06-20T09:03:39.319Z,60.64
2018-06-20T09:06:13.094Z,60.85
2018-06-20T09:08:46.922Z,60.05
2018-06-20T09:11:20.757Z,59.74
2018-06-20T09:13:54.595Z,59.50
2018-06-20T09:16:28.504Z,59.01
2018-06-20T09:19:02.280Z,59.65
2018-06-20T09:21:39.741Z,58.55
2018-06-20T09:24:08.185Z,59.16
2018-06-20T09:26:36.779Z,58.02
2018-06-20T09:29:05.377Z,57.89
2018-06-20T09:31:34.402Z,58.12
2018-06-20T09:34:02.943Z,59.04
2018-06-20T09:36:31.463Z,58.94
2018-06-20T09:39:01.142Z,58.18
2018-06-20T09:41:30.341Z,58.11
2018-06-20T09:43:58.781Z,57.07
2018-06-20T09:46:27.293Z,56.06
2018-06-20T09:48:55.821Z,55.72
2018-06-20T09:51:33.528Z,55.34
2018-06-20T09:54:06.600Z,55.55
2018-06-20T09:56:35.048Z,55.42
2018-06-20T09:59:08.719Z,55.00
2018-06-20T10:01:57.830Z,53.87
2018-06-20T10:04:31.572Z,54.13
2018-06-20T10:07:05.329Z,54.42
2018-06-20T10:09:39.073Z,54.66
2018-06-20T10:12:16.748Z,55.46
2018-06-20T10:14:45.308Z,54.80
2018-06-20T10:17:13.848Z,54.07
2018-06-20T10:19:42.375Z,54.12
2018-06-20T10:22:10.859Z,54.17
2018-06-20T10:24:39.402Z,54.77
2018-06-20T10:27:07.926Z,54.85
2018-06-20T10:29:37.236Z,54.35
2018-06-20T10:32:05.942Z,54.70
2018-06-20T10:34:34.402Z,55.54
2018-06-20T10:37:02.866Z,55.80
2018-06-20T10:39:31.452Z,54.07
2018-06-20T10:41:59.895Z,53.80
2018-06-20T10:44:28.396Z,53.85
2018-06-20T10:47:02.357Z,53.37
2018-06-20T10:49:31.019Z,52.68
2018-06-20T10:51:59.601Z,51.93
2018-06-20T10:54:28.041Z,51.34
2018-06-20T10:57:01.986Z,52.34
2018-06-20T10:59:35.694Z,52.09
2018-06-20T11:02:09.556Z,51.48
2018-06-20T11:04:43.341Z,51.12
2018-06-20T11:07:17.109Z,51.24
2018-06-20T11:11:57.854Z,50.27
2018-06-20T11:14:33.637Z,50.52
2018-06-20T11:17:02.130Z,48.69
2018-06-20T11:23:00.360Z,48.33
2018-06-20T11:25:29.331Z,46.88
2018-06-20T11:27:58.029Z,46.21
2018-06-20T11:30:26.457Z,45.74
2018-06-20T11:33:23.832Z,44.97
2018-06-20T11:35:52.337Z,44.98
2018-06-20T11:38:20.914Z,44.63
2018-06-20T11:40:49.484Z,44.46
2018-06-20T11:43:19.824Z,43.80
2018-06-20T11:45:55.529Z,42.09
2018-06-20T11:48:24.061Z,41.35
2018-06-20T11:50:52.564Z,41.52
2018-06-20T11:53:21.202Z,40.75
2018-06-20T11:55:50.025Z,41.34
2018-06-20T11:58:25.633Z,39.76
2018-06-20T12:01:01.140Z,40.16
2018-06-20T12:04:06.289Z,39.26
2018-06-20T12:06:40.193Z,39.27
2018-06-20T12:09:14.050Z,39.05
2018-06-20T12:11:47.822Z,38.52
2018-06-20T12:14:21.581Z,39.20
2018-06-20T12:16:58.994Z,39.85
2018-06-20T12:19:32.620Z,38.91
2018-06-20T12:22:33.702Z,38.17
2018-06-20T12:25:07.699Z,38.85
2018-06-20T12:27:41.384Z,38.12
2018-06-20T12:30:17.656Z,37.27
2018-06-20T12:33:29.121Z,37.60
2018-06-20T12:36:02.823Z,38.13
2018-06-20T12:38:36.658Z,37.21
2018-06-20T12:41:10.332Z,36.22
2018-06-20T12:43:44.425Z,35.61
2018-06-20T12:46:16.281Z,35.05
2018-06-20T12:48:44.735Z,35.80
2018-06-20T12:51:13.327Z,35.02
2018-06-20T12:53:41.892Z,34.15
2018-06-20T12:56:10.410Z,33.39
2018-06-20T12:58:38.930Z,34.29
2018-06-20T13:01:07.435Z,34.05
2018-06-20T13:03:35.935Z,33.75
2018-06-20T13:06:04.439Z,32.45
2018-06-20T13:08:33.193Z,32.14
2018-06-20T13:11:01.781Z,32.39
2018-06-20T13:13:30.247Z,32.82
2018-06-20T13:15:58.749Z,33.77
2018-06-20T13:18:27.321Z,34.71
2018-06-20T13:20:55.888Z,35.39
2018-06-20T13:23:24.473Z,34.25
2018-06-20T13:25:53.068Z,33.70
2018-06-20T13:28:21.607Z,33.34
2018-06-20T13:30:54.221Z,33.52
2018-06-20T13:33:27.825Z,34.11
2018-06-20T13:36:01.736Z,35.47
2018-06-20T13:38:35.947Z,34.72
2018-06-20T13:41:09.973Z,34.43
2018-06-20T13:43:43.801Z,33.62
2018-06-20T13:46:18.753Z,33.53
2018-06-20T13:48:48.101Z,33.32
2018-06-20T13:51:22.606Z,34.39
2018-06-20T13:53:51.101Z,35.12
2018-06-20T13:56:19.543Z,36.00
2018-06-20T13:58:48.065Z,35.28
2018-06-20T14:01:16.607Z,34.21
2018-06-20T14:03:45.116Z,34.47
2018-06-20T14:06:13.711Z,34.39
2018-06-20T14:08:42.183Z,35.50
2018-06-20T14:11:10.656Z,34.76
2018-06-20T14:13:39.148Z,35.35
2018-06-20T14:16:07.693Z,34.03
2018-06-20T14:18:36.145Z,33.93
2018-06-20T14:21:09.966Z,32.99
2018-06-20T14:23:38.540Z,33.06
2018-06-20T14:26:07.090Z,33.41
2018-06-20T14:28:35.660Z,33.46
2018-06-20T14:31:09.581Z,33.01
2018-06-20T14:33:43.456Z,32.63
2018-06-20T14:36:17.256Z,32.50
2018-06-20T14:38:51.000Z,32.94
2018-06-20T14:41:23.701Z,33.42
2018-06-20T14:43:58.313Z,33.89
2018-06-20T14:46:28.756Z,35.87
2018-06-20T14:48:57.367Z,36.32
2018-06-20T14:51:25.866Z,35.72
2018-06-20T14:53:54.397Z,34.74
2018-06-20T14:56:22.827Z,34.37
2018-06-20T14:58:51.475Z,33.76
2018-06-20T15:01:20.060Z,33.30
2018-06-20T15:03:48.592Z,33.44
2018-06-20T15:06:17.129Z,33.94
2018-06-20T15:08:45.718Z,34.15
2018-06-20T15:11:14.268Z,33.98
2018-06-20T15:31:10.969Z,35.61
2018-06-20T15:33:44.789Z,33.94
2018-06-20T15:36:18.712Z,33.63
2018-06-20T15:38:47.122Z,33.99
2018-06-20T15:41:15.721Z,33.27
2018-06-20T15:43:44.160Z,32.98
2018-06-20T15:46:12.767Z,32.94
2018-06-20T16:05:59.856Z,32.53
2018-06-20T16:08:28.397Z,33.26
2018-06-20T16:10:56.986Z,33.52
2018-06-20T16:13:25.614Z,33.01
2018-06-20T16:15:54.085Z,32.72
2018-06-20T16:18:22.709Z,32.30
2018-06-20T16:20:56.537Z,32.91
2018-06-20T16:23:30.312Z,32.90
2018-06-20T16:26:04.180Z,33.33
2018-06-20T16:28:37.960Z,33.84
2018-06-20T16:31:06.502Z,34.13
2018-06-20T16:33:34.994Z,33.43
2018-06-20T16:36:03.528Z,33.76
2018-06-20T16:58:39.847Z,33.36
2018-06-20T17:01:15.916Z,33.47
2018-06-20T17:03:50.016Z,33.49
2018-06-20T17:06:18.633Z,33.37
2018-06-20T17:08:47.026Z,33.29
2018-06-20T17:11:15.562Z,34.17
2018-06-20T17:13:49.713Z,34.41
2018-06-20T17:16:25.652Z,34.70
2018-06-20T17:18:59.498Z,34.83
2018-06-20T17:21:33.170Z,34.48
2018-06-20T17:24:06.971Z,34.61
2018-06-20T17:26:37.097Z,33.61
2018-06-20T17:29:05.651Z,34.09
2018-06-20T17:31:34.090Z,33.79
2018-06-20T17:34:02.854Z,33.50
2018-06-20T17:36:31.377Z,33.99
2018-06-20T17:38:59.860Z,34.13
2018-06-20T17:41:28.951Z,34.83
2018-06-20T17:43:57.500Z,35.31
2018-06-20T17:46:26.009Z,35.01
2018-06-20T17:48:54.936Z,34.63
2018-06-20T18:28:17.799Z,39.53
2018-06-20T18:30:49.598Z,39.66
2018-06-20T18:33:18.144Z,40.20
2018-06-20T18:35:46.643Z,40.35
2018-06-20T18:38:15.213Z,41.07
2018-06-20T18:40:43.792Z,42.60
2018-06-20T18:43:12.315Z,42.15
2018-06-20T18:45:40.857Z,41.58
2018-06-20T18:48:14.751Z,41.64
2018-06-20T18:50:43.347Z,41.42
2018-06-20T19:30:07.872Z,43.25
2018-06-20T19:32:38.069Z,45.12
2018-06-20T19:58:35.948Z,50.26
2018-06-20T20:01:04.551Z,50.98
2018-06-20T20:03:33.014Z,51.94
2018-06-20T20:06:04.480Z,51.34
2018-06-20T20:08:34.776Z,51.50
2018-06-20T23:02:13.828Z,72.81
2018-06-20T23:04:42.379Z,73.32
2018-06-20T23:07:10.902Z,73.67
2018-06-20T23:09:39.556Z,74.02
2018-06-20T23:12:08.107Z,73.78
2018-06-20T23:14:36.775Z,74.01
2018-06-20T23:50:36.267Z,75.16
2018-06-20T23:53:05.057Z,75.51
2018-06-20T23:55:33.564Z,75.65
2018-06-20T23:58:02.142Z,75.45
